Time;durP1;ratioP1;P1;durP2;ratioP2;P2;SDS_P1;SDS_P2;PMS_P1;PMS_P2;Temp;Humidity;BMP_temperature;BMP_pressure;BME280_temperature;BME280_humidity;BME280_pressure;Samples;Min_cycle;Max_cycle;Signal;HPM_P1;HPM_P2
2022/05/12 00:00:03;;;;;;;9.67;8.77;;;;;;;17.15;67.68;99879.50;5071924;28;20570;-61
2022/05/12 00:02:30;;;;;;;11.30;8.07;;;;;;;17.13;67.65;99878.66;5071675;28;20188;-61
2022/05/12 00:04:59;;;;;;;14.17;9.23;;;;;;;17.09;67.50;99882.97;5071873;28;20196;-61
2022/05/12 00:07:26;;;;;;;9.17;8.20;;;;;;;17.04;67.45;99876.94;5071623;28;20582;-61
2022/05/12 00:09:53;;;;;;;10.47;8.27;;;;;;;17.04;67.41;99877.81;5071969;28;20223;-61
2022/05/12 00:12:20;;;;;;;9.33;8.20;;;;;;;17.01;67.46;99877.81;5071071;28;20196;-62
2022/05/12 00:14:46;;;;;;;8.23;7.37;;;;;;;16.99;67.91;99876.09;5070997;28;20559;-61
2022/05/12 00:17:13;;;;;;;9.07;8.13;;;;;;;16.95;68.15;99875.25;5068381;28;20246;-62
2022/05/12 00:19:40;;;;;;;8.97;8.07;;;;;;;16.92;68.22;99870.06;5071421;28;20192;-62
2022/05/12 00:22:08;;;;;;;11.70;8.33;;;;;;;16.88;68.59;99873.53;5071189;28;20192;-61
2022/05/12 00:24:35;;;;;;;10.87;8.73;;;;;;;16.86;68.37;99880.47;5071528;28;20194;-61
2022/05/12 00:27:02;;;;;;;8.93;8.10;;;;;;;16.94;68.27;99881.31;5069928;28;20441;-61
2022/05/12 00:29:29;;;;;;;9.13;8.23;;;;;;;17.00;67.92;99878.69;5071173;28;20717;-61
2022/05/12 00:31:55;;;;;;;9.83;8.17;;;;;;;16.99;67.83;99871.78;5063652;28;20248;-57
2022/05/12 00:34:22;;;;;;;9.27;8.37;;;;;;;17.01;67.95;99875.22;5051041;28;20195;-56
2022/05/12 00:36:49;;;;;;;9.20;8.30;;;;;;;16.98;68.21;99882.16;5050722;28;20223;-56
2022/05/12 00:39:18;;;;;;;9.33;8.13;;;;;;;16.95;68.03;99888.22;5050635;28;20301;-56
2022/05/12 00:41:45;;;;;;;9.43;8.50;;;;;;;16.89;68.33;99892.59;5051009;28;20594;-57
2022/05/12 00:44:15;;;;;;;10.23;8.90;;;;;;;16.84;68.50;99889.13;5050569;28;20192;-56
2022/05/12 00:46:44;;;;;;;10.30;9.20;;;;;;;16.79;69.07;99888.25;5050453;28;20410;-56
2022/05/12 00:49:15;;;;;;;11.33;8.80;;;;;;;16.73;69.27;99883.13;5050268;28;20210;-56
2022/05/12 00:51:45;;;;;;;10.40;9.30;;;;;;;16.71;68.65;99880.50;5050657;28;20196;-56
2022/05/12 00:54:16;;;;;;;9.27;8.23;;;;;;;16.66;69.00;99877.06;5050717;28;20196;-56
2022/05/12 00:56:45;;;;;;;11.97;8.77;;;;;;;16.67;69.25;99883.13;5050025;28;20224;-56
2022/05/12 00:59:19;;;;;;;10.33;9.27;;;;;;;16.62;69.48;99883.09;5050701;28;20188;-56
2022/05/12 01:01:46;;;;;;;11.93;9.00;;;;;;;16.50;69.94;99881.41;5050571;28;20254;-56
2022/05/12 01:04:13;;;;;;;9.67;8.70;;;;;;;16.48;69.79;99884.84;5050519;28;20206;-56
2022/05/12 01:06:40;;;;;;;11.67;7.80;;;;;;;16.39;69.37;99887.44;5050453;28;20188;-56
2022/05/12 01:09:06;;;;;;;8.87;7.90;;;;;;;16.38;69.04;99891.78;5050649;28;20603;-57
2022/05/12 01:11:34;;;;;;;8.73;7.77;;;;;;;16.33;69.04;99883.13;5050616;28;20215;-56
2022/05/12 01:14:06;;;;;;;7.87;7.10;;;;;;;16.27;69.00;99890.03;5050263;28;20206;-56
2022/05/12 01:16:38;;;;;;;8.87;7.47;;;;;;;16.24;68.93;99896.09;5050289;28;20597;-56
2022/05/12 01:19:07;;;;;;;8.57;7.47;;;;;;;16.20;68.73;99904.75;5050161;28;20196;-56
2022/05/12 01:21:34;;;;;;;8.43;7.53;;;;;;;16.21;68.30;99897.81;5050301;28;20207;-56
2022/05/12 01:24:03;;;;;;;7.80;6.87;;;;;;;16.02;68.75;99899.53;5050203;28;20242;-56
2022/05/12 01:26:30;;;;;;;8.30;7.40;;;;;;;16.05;68.54;99896.09;5050228;28;20195;-56
2022/05/12 01:28:56;;;;;;;8.27;7.37;;;;;;;15.91;69.12;99901.25;5050302;28;20203;-56
2022/05/12 01:31:24;;;;;;;8.63;6.73;;;;;;;15.98;68.61;99905.59;5050016;28;20196;-56
2022/05/12 01:33:52;;;;;;;7.17;6.57;;;;;;;16.04;67.92;99912.53;5050221;28;20192;-56
2022/05/12 01:36:19;;;;;;;7.53;6.90;;;;;;;16.07;67.30;99910.78;5049887;28;20313;-57
2022/05/12 01:38:47;;;;;;;10.17;8.67;;;;;;;16.09;66.76;99913.38;5049745;28;20270;-56
2022/05/12 01:41:15;;;;;;;13.37;10.87;;;;;;;16.07;66.71;99908.19;5049828;28;20200;-56
2022/05/12 01:43:42;;;;;;;15.23;13.20;;;;;;;16.09;66.24;99913.38;5049881;28;20206;-56
2022/05/12 01:46:09;;;;;;;15.60;13.40;;;;;;;16.12;66.36;99910.78;5049582;28;20435;-56
2022/05/12 01:48:36;;;;;;;13.57;12.27;;;;;;;16.13;66.15;99912.50;5049916;28;20198;-56
2022/05/12 01:51:04;;;;;;;15.43;11.07;;;;;;;16.11;66.02;99901.28;5050082;28;20195;-56
2022/05/12 01:53:31;;;;;;;11.53;9.63;;;;;;;16.15;65.82;99908.22;5049735;28;20196;-57
2022/05/12 01:55:58;;;;;;;10.23;9.07;;;;;;;16.13;65.79;99912.50;5049604;28;20275;-56
2022/05/12 01:58:27;;;;;;;13.50;10.77;;;;;;;16.11;65.76;99919.44;5049569;28;20209;-56
2022/05/12 02:00:54;;;;;;;10.50;9.40;;;;;;;16.08;65.54;99906.47;5049754;28;20199;-56
2022/05/12 02:03:21;;;;;;;17.97;12.47;;;;;;;16.04;66.07;99915.94;5049699;28;20203;-56
2022/05/12 02:05:48;;;;;;;21.30;13.60;;;;;;;15.87;66.45;99918.56;5049481;28;20191;-56
2022/05/12 02:08:17;;;;;;;14.93;13.40;;;;;;;15.91;66.62;99922.84;5052157;28;20450;-56
2022/05/12 02:10:45;;;;;;;13.43;10.67;;;;;;;15.67;66.60;99916.75;5053870;28;20468;-56
2022/05/12 02:13:13;;;;;;;11.10;9.87;;;;;;;15.73;66.53;99928.03;5053736;28;20199;-56
2022/05/12 02:15:42;;;;;;;14.07;11.07;;;;;;;15.79;66.74;99929.75;5053825;28;20210;-56
2022/05/12 02:18:10;;;;;;;12.60;9.37;;;;;;;15.71;66.46;99927.13;5053544;28;20241;-56
2022/05/12 02:20:38;;;;;;;10.27;9.27;;;;;;;15.52;66.88;99932.28;5069938;28;20199;-56
2022/05/12 02:23:05;;;;;;;9.83;8.93;;;;;;;15.54;67.28;99933.13;5073782;28;20573;-56
2022/05/12 02:25:32;;;;;;;9.53;8.53;;;;;;;15.53;67.26;99940.03;5073578;28;20204;-56
2022/05/12 02:27:59;;;;;;;9.27;8.47;;;;;;;15.63;67.45;99940.94;5073290;28;20229;-56
2022/05/12 02:30:29;;;;;;;11.63;8.53;;;;;;;15.69;67.33;99933.16;5073391;28;20578;-56
2022/05/12 02:32:57;;;;;;;9.00;8.20;;;;;;;15.73;67.11;99940.09;5073408;28;20209;-56
2022/05/12 02:35:25;;;;;;;9.23;7.47;;;;;;;15.75;66.87;99943.56;5073298;28;20546;-56
2022/05/12 02:37:52;;;;;;;13.57;9.73;;;;;;;15.79;67.05;99950.50;5073198;28;20242;-56
2022/05/12 02:40:22;;;;;;;14.70;9.27;;;;;;;15.76;67.44;99950.47;5073203;28;20195;-56
2022/05/12 02:42:49;;;;;;;14.10;8.77;;;;;;;15.75;67.42;99951.31;5073109;28;20195;-56
2022/05/12 02:45:16;;;;;;;15.43;9.30;;;;;;;15.80;67.03;99959.97;5072980;28;20196;-57
2022/05/12 02:47:44;;;;;;;9.70;8.37;;;;;;;15.79;67.34;99955.66;5073050;28;20504;-56
2022/05/12 02:50:18;;;;;;;9.77;8.20;;;;;;;15.81;67.70;99960.00;5072430;28;20200;-56
2022/05/12 02:52:45;;;;;;;9.87;8.60;;;;;;;15.84;67.80;99956.53;5071052;28;20209;-57
2022/05/12 02:55:13;;;;;;;15.67;8.97;;;;;;;15.80;68.16;99963.44;5072887;28;20188;-56
2022/05/12 02:57:40;;;;;;;10.57;8.23;;;;;;;15.80;68.27;99955.66;5072907;28;20993;-56
2022/05/12 03:00:11;;;;;;;9.33;8.33;;;;;;;15.77;68.75;99957.38;5072901;28;20195;-56
2022/05/12 03:02:37;;;;;;;10.10;8.40;;;;;;;15.76;68.91;99955.66;5072607;28;20206;-56
2022/05/12 03:05:05;;;;;;;12.20;9.00;;;;;;;15.77;69.10;99958.25;5072763;28;20594;-56
2022/05/12 03:07:33;;;;;;;14.63;9.47;;;;;;;15.79;69.40;99964.28;5072593;28;20205;-57
2022/05/12 03:10:00;;;;;;;13.27;8.93;;;;;;;15.80;69.68;99973.78;5072531;28;20192;-56
2022/05/12 03:12:27;;;;;;;10.30;9.20;;;;;;;15.79;69.61;99972.06;5072558;28;20542;-56
2022/05/12 03:14:54;;;;;;;11.13;9.93;;;;;;;15.79;69.90;99982.41;5072501;28;20191;-56
2022/05/12 03:17:21;;;;;;;12.53;9.67;;;;;;;15.80;70.00;99978.97;5072427;28;20383;-57
2022/05/12 03:19:48;;;;;;;10.47;9.43;;;;;;;15.84;70.06;99977.28;5072006;28;20526;-56
2022/05/12 03:22:15;;;;;;;10.87;9.57;;;;;;;15.83;70.32;99979.00;5072306;28;20654;-56
2022/05/12 03:24:43;;;;;;;14.17;9.33;;;;;;;15.85;70.49;99974.66;5072361;28;20214;-56
2022/05/12 03:27:10;;;;;;;12.50;9.90;;;;;;;15.86;70.59;99973.81;5072386;28;20548;-56
2022/05/12 03:29:37;;;;;;;13.20;10.65;;;;;;;15.90;70.50;99980.72;5071540;28;20473;-57
2022/05/12 03:32:10;;;;;;;15.60;9.90;;;;;;;16.01;69.65;99985.97;5072046;28;20192;-56
2022/05/12 03:34:38;;;;;;;14.37;10.03;;;;;;;15.97;70.04;99983.34;5072005;28;20231;-56
2022/05/12 03:37:07;;;;;;;13.90;10.47;;;;;;;15.96;69.94;99981.63;5072073;28;20716;-57
2022/05/12 03:39:35;;;;;;;10.83;9.27;;;;;;;15.93;70.01;99980.72;5071638;28;20750;-56
2022/05/12 03:42:06;;;;;;;11.20;9.40;;;;;;;15.87;69.42;99960.00;5071895;28;20222;-56
2022/05/12 03:44:49;;;;;;;11.70;9.60;;;;;;;15.99;69.27;99979.03;5072103;28;20198;-56
2022/05/12 03:47:19;;;;;;;13.23;9.70;;;;;;;16.03;69.65;99976.44;5071982;28;20243;-55
2022/05/12 03:49:46;;;;;;;10.57;9.57;;;;;;;16.08;69.19;99977.31;5071576;28;20680;-55
2022/05/12 03:52:13;;;;;;;11.37;9.53;;;;;;;16.10;68.39;99982.50;5071452;28;20195;-55
2022/05/12 03:54:41;;;;;;;11.20;8.87;;;;;;;16.19;68.01;99993.75;5071974;28;20210;-56
2022/05/12 03:57:09;;;;;;;9.30;8.47;;;;;;;16.23;67.70;99981.69;5071693;28;20287;-56
2022/05/12 03:59:38;;;;;;;13.77;9.13;;;;;;;16.26;67.63;99995.50;5069945;28;20199;-55
2022/05/12 04:02:05;;;;;;;9.20;8.40;;;;;;;16.35;67.08;99997.22;5071642;28;20211;-55
2022/05/12 04:04:32;;;;;;;11.93;8.87;;;;;;;16.43;66.80;99998.09;5071517;28;20737;-55
2022/05/12 04:06:59;;;;;;;8.57;7.67;;;;;;;16.41;66.41;99977.34;5071551;28;20720;-55
2022/05/12 04:09:27;;;;;;;10.30;7.83;;;;;;;16.60;65.94;99999.00;5071467;28;20191;-55
2022/05/12 04:11:55;;;;;;;8.80;7.70;;;;;;;16.65;65.20;100010.25;5071773;28;20199;-55
2022/05/12 04:14:23;;;;;;;9.10;7.93;;;;;;;16.67;65.37;100010.25;5071120;28;20692;-55
2022/05/12 04:16:50;;;;;;;8.00;7.13;;;;;;;16.71;65.01;100015.44;5071046;28;20229;-57
2022/05/12 04:19:17;;;;;;;11.20;7.67;;;;;;;16.52;64.55;99980.81;5071169;28;20206;-55
2022/05/12 04:21:44;;;;;;;8.67;7.57;;;;;;;16.73;64.46;100021.50;5071503;28;20210;-55
2022/05/12 04:24:11;;;;;;;9.00;7.47;;;;;;;16.79;64.39;100011.13;5071319;28;20570;-55
2022/05/12 04:26:39;;;;;;;9.63;7.40;;;;;;;16.80;64.27;100019.78;5069587;28;20192;-55
2022/05/12 04:29:07;;;;;;;10.50;8.23;;;;;;;16.89;64.16;100017.19;5067973;28;20962;-55
2022/05/12 04:31:35;;;;;;;10.83;9.23;;;;;;;17.02;63.45;100019.75;5069770;28;20583;-55
2022/05/12 04:36:46;;;;;;;11.93;7.77;;;;;;;17.07;63.28;100025.81;5070826;28;20218;-56
2022/05/12 04:39:13;;;;;;;10.97;8.40;;;;;;;17.13;63.06;100022.34;5070755;28;20231;-56
2022/05/12 04:41:40;;;;;;;13.73;8.27;;;;;;;17.13;63.10;100030.13;5070400;28;20196;-56
2022/05/12 04:44:07;;;;;;;10.57;8.50;;;;;;;17.18;62.98;100032.69;5066921;28;20192;-56
2022/05/12 04:46:36;;;;;;;13.60;9.20;;;;;;;17.18;62.63;100024.91;5066709;28;20204;-56
2022/05/12 04:49:03;;;;;;;10.10;8.60;;;;;;;17.22;62.65;100029.25;5069998;28;20203;-56
2022/05/12 04:51:31;;;;;;;11.63;8.13;;;;;;;17.15;62.25;100020.59;5070079;28;20211;-56
2022/05/12 04:53:58;;;;;;;12.07;8.10;;;;;;;17.17;62.22;100031.00;5065607;28;20651;-56
2022/05/12 04:56:25;;;;;;;9.90;8.70;;;;;;;17.14;62.78;100020.59;5057944;28;20210;-56
2022/05/12 04:58:52;;;;;;;11.57;8.30;;;;;;;17.19;62.12;100017.13;5065621;28;20200;-57
2022/05/12 05:01:19;;;;;;;9.17;7.83;;;;;;;17.18;62.42;100014.53;5069819;28;20187;-61
2022/05/12 05:03:47;;;;;;;9.50;7.87;;;;;;;17.29;61.88;100031.81;5069838;28;20203;-61
2022/05/12 05:06:14;;;;;;;8.23;7.43;;;;;;;17.39;61.64;100036.13;5068708;28;20222;-62
2022/05/12 05:08:40;;;;;;;11.10;7.00;;;;;;;17.41;60.56;100036.13;5066563;28;20184;-62
2022/05/12 05:11:07;;;;;;;9.50;7.50;;;;;;;17.43;60.89;100042.16;5069496;28;20282;-61
2022/05/12 05:13:34;;;;;;;10.63;8.47;;;;;;;17.52;60.64;100036.97;5067872;28;20202;-62
2022/05/12 05:16:02;;;;;;;9.47;8.10;;;;;;;17.57;60.73;100037.84;5069749;28;20615;-62
2022/05/12 05:18:29;;;;;;;11.13;7.57;;;;;;;17.67;60.10;100026.53;5069480;28;20218;-62
2022/05/12 05:20:57;;;;;;;12.63;8.00;;;;;;;17.72;59.79;100021.34;5070396;28;20199;-62
2022/05/12 05:23:24;;;;;;;11.80;7.93;;;;;;;17.83;59.94;100029.91;5070174;28;20217;-61
2022/05/12 05:25:51;;;;;;;10.50;8.10;;;;;;;17.89;59.52;100029.91;5069970;28;20187;-62
2022/05/12 05:28:19;;;;;;;7.83;7.03;;;;;;;18.01;58.87;100030.72;5069642;28;20200;-60
2022/05/12 05:30:46;;;;;;;9.77;7.70;;;;;;;18.09;58.73;100028.94;5069780;28;20196;-61
2022/05/12 05:33:13;;;;;;;8.57;7.60;;;;;;;18.17;57.98;100034.97;5070136;28;20202;-61
2022/05/12 05:35:40;;;;;;;9.27;7.57;;;;;;;18.20;58.23;100034.94;5069474;28;20229;-62
2022/05/12 05:38:09;;;;;;;8.93;7.67;;;;;;;18.21;58.25;100039.25;5069459;28;20223;-61
2022/05/12 05:40:36;;;;;;;9.90;8.10;;;;;;;18.20;58.60;100042.75;5069540;28;20281;-61
2022/05/12 05:43:03;;;;;;;9.13;7.43;;;;;;;18.24;58.28;100044.44;5069650;28;20192;-61
2022/05/12 05:45:31;;;;;;;8.77;7.30;;;;;;;18.32;58.51;100036.63;5069855;28;20219;-62
2022/05/12 05:47:59;;;;;;;10.63;8.00;;;;;;;18.43;58.05;100039.13;5069736;28;20562;-61
2022/05/12 05:50:29;;;;;;;10.77;7.87;;;;;;;18.50;58.07;100033.91;5069494;28;20631;-61
2022/05/12 05:55:43;;;;;;;8.73;7.80;;;;;;;18.59;57.18;100041.66;5067014;28;20190;-56
2022/05/12 05:58:10;;;;;;;9.33;7.93;;;;;;;18.50;57.50;100020.03;5064628;28;20261;-56
2022/05/12 06:00:39;;;;;;;10.25;7.47;;;;;;;18.64;57.65;100037.28;5068037;28;20429;-56
2022/05/12 06:03:06;;;;;;;8.40;7.60;;;;;;;18.79;57.20;100031.06;5068853;28;20199;-56
2022/05/12 06:05:33;;;;;;;8.37;7.57;;;;;;;18.87;57.07;100041.44;5067310;28;20198;-57
2022/05/12 06:08:00;;;;;;;10.33;7.77;;;;;;;18.95;56.84;100042.22;5062679;28;20210;-57
2022/05/12 06:10:27;;;;;;;10.37;8.10;;;;;;;19.00;56.62;100041.31;5066511;28;20434;-57
2022/05/12 06:12:56;;;;;;;10.40;8.30;;;;;;;19.00;56.95;100045.66;5068298;28;20210;-57
2022/05/12 06:15:25;;;;;;;9.93;7.70;;;;;;;19.08;56.58;100039.50;5068605;28;20270;-57
2022/05/12 06:17:53;;;;;;;8.80;7.90;;;;;;;19.20;55.92;100041.13;5068789;28;20226;-57
2022/05/12 06:20:20;;;;;;;9.57;8.50;;;;;;;19.26;56.27;100039.31;5069502;28;20221;-57
2022/05/12 06:22:47;;;;;;;10.37;7.70;;;;;;;19.33;55.78;100038.38;5069369;28;20234;-58
2022/05/12 06:25:17;;;;;;;9.13;7.97;;;;;;;19.42;55.94;100040.03;5069223;28;20198;-57
2022/05/12 06:27:44;;;;;;;9.33;8.00;;;;;;;19.51;55.50;100036.47;5069202;28;20191;-57
2022/05/12 06:30:13;;;;;;;10.33;9.00;;;;;;;19.57;55.84;100031.19;5069044;28;20206;-57
2022/05/12 06:32:41;;;;;;;10.17;9.13;;;;;;;19.66;55.79;100033.69;5068953;28;20234;-57
2022/05/12 06:35:10;;;;;;;13.53;8.23;;;;;;;19.81;55.79;100038.72;5068803;28;20210;-57
2022/05/12 06:37:37;;;;;;;9.10;8.13;;;;;;;19.88;55.48;100036.03;5068684;28;20207;-58
2022/05/12 06:40:05;;;;;;;11.60;7.97;;;;;;;20.00;55.21;100042.81;5069195;28;20207;-57
2022/05/12 06:42:35;;;;;;;8.90;7.93;;;;;;;20.06;55.40;100040.13;5068815;28;20195;-57
2022/05/12 06:45:02;;;;;;;12.70;7.03;;;;;;;20.16;54.93;100036.50;5063044;28;20189;-57
2022/05/12 06:47:31;;;;;;;7.70;6.40;;;;;;;20.27;54.14;100036.41;5068014;28;20256;-57
2022/05/12 06:50:01;;;;;;;12.50;8.10;;;;;;;20.35;54.35;100035.41;5069151;28;20638;-57
2022/05/12 06:52:28;;;;;;;11.37;7.57;;;;;;;20.47;54.47;100034.34;5063582;28;20192;-57
2022/05/12 06:54:55;;;;;;;7.60;6.80;;;;;;;20.42;54.59;100031.81;5069562;28;20230;-57
2022/05/12 06:57:27;;;;;;;9.67;6.87;;;;;;;20.56;54.14;100031.59;5071997;28;20195;-57
2022/05/12 06:59:55;;;;;;;12.07;7.30;;;;;;;20.54;52.84;100002.91;5071598;28;20947;-57
2022/05/12 07:02:22;;;;;;;8.13;6.73;;;;;;;20.81;52.47;100019.88;5071808;28;20203;-57
2022/05/12 07:04:52;;;;;;;8.70;7.13;;;;;;;20.92;51.66;100027.53;5071573;28;20505;-57
2022/05/12 07:07:20;;;;;;;7.23;5.80;;;;;;;21.04;50.40;100011.66;5069925;28;20200;-56
2022/05/12 07:09:50;;;;;;;6.60;5.83;;;;;;;21.18;50.13;100020.09;5072174;28;20219;-58
2022/05/12 07:12:17;;;;;;;7.20;6.50;;;;;;;21.21;50.03;100016.56;5067195;28;20220;-57
2022/05/12 07:14:44;;;;;;;6.70;6.13;;;;;;;21.30;49.93;100016.41;5069683;28;20222;-57
2022/05/12 07:17:10;;;;;;;8.57;6.37;;;;;;;;;;5072181;28;20207;-58
2022/05/12 07:19:37;;;;;;;6.50;5.70;;;;;;;21.37;48.72;100018.88;5072061;28;20216;-57
2022/05/12 07:27:38;;;;;;;7.10;5.80;;;;;;;21.66;48.67;100028.78;5071475;28;20425;-58
2022/05/12 07:30:06;;;;;;;6.87;6.20;;;;;;;21.76;48.33;100012.00;5072046;28;20223;-57
2022/05/12 07:32:37;;;;;;;10.37;5.77;;;;;;;21.85;48.58;100017.03;5071777;28;20199;-57
2022/05/12 07:35:05;;;;;;;6.60;5.87;;;;;;;21.87;48.54;100007.41;5071719;28;20191;-63
2022/05/12 07:37:33;;;;;;;7.87;6.77;;;;;;;21.92;49.29;100010.78;5071303;28;20684;-62
2022/05/12 07:40:00;;;;;;;7.77;6.30;;;;;;;22.05;48.99;100016.66;5061821;28;20196;-62
2022/05/12 07:42:27;;;;;;;16.33;6.07;;;;;;;22.12;48.56;100011.22;5051423;28;20662;-63
2022/05/12 07:44:53;;;;;;;8.70;6.00;;;;;;;22.25;48.22;100003.94;5051335;28;20200;-63
2022/05/12 07:47:21;;;;;;;8.20;5.60;;;;;;;22.30;48.30;100012.59;5051593;28;20741;-62
2022/05/12 07:49:47;;;;;;;9.13;5.67;;;;;;;22.23;47.85;99998.75;5051497;28;20211;-62
2022/05/12 07:52:15;;;;;;;6.77;5.20;;;;;;;22.46;47.49;100006.09;5051504;28;20235;-62
2022/05/12 07:54:43;;;;;;;6.13;5.10;;;;;;;22.60;45.32;100000.53;5057971;28;20189;-62
2022/05/12 07:57:10;;;;;;;7.03;5.70;;;;;;;22.66;45.17;100000.41;5071208;28;20686;-62
2022/05/12 07:59:37;;;;;;;10.50;5.27;;;;;;;22.79;45.41;100001.81;5070908;28;20219;-62
2022/05/12 08:02:05;;;;;;;9.23;5.07;;;;;;;22.89;44.69;100001.53;5070729;28;20542;-63
2022/05/12 08:04:32;;;;;;;11.17;5.20;;;;;;;23.01;44.60;100000.38;5070696;28;20670;-63
2022/05/12 08:07:01;;;;;;;5.43;4.85;;;;;;;23.04;42.31;99996.81;5070477;28;20448;-62
2022/05/12 08:09:28;;;;;;;5.83;4.53;;;;;;;23.11;41.67;99996.59;5067012;28;20206;-63
2022/05/12 08:11:56;;;;;;;5.10;4.60;;;;;;;23.18;42.03;99995.53;5070371;28;20306;-63
2022/05/12 08:14:23;;;;;;;5.30;4.80;;;;;;;23.30;42.00;99997.81;5070462;28;20186;-62
2022/05/12 08:16:50;;;;;;;5.50;5.00;;;;;;;23.45;42.21;99991.31;5069822;28;20191;-63
2022/05/12 08:19:16;;;;;;;9.23;6.87;;;;;;;23.61;42.67;99989.97;5069975;28;20219;-62
2022/05/12 08:21:43;;;;;;;8.35;5.65;;;;;;;23.72;41.33;99982.66;5068332;28;20442;-62
2022/05/12 08:24:10;;;;;;;6.17;5.00;;;;;;;23.89;42.08;99982.16;5069446;28;20691;-62
2022/05/12 08:26:37;;;;;;;7.13;5.30;;;;;;;24.02;42.11;99989.63;5070482;28;20203;-62
2022/05/12 08:29:06;;;;;;;6.40;5.03;;;;;;;24.03;40.95;99990.47;5070551;28;20200;-62
2022/05/12 08:31:32;;;;;;;5.87;5.40;;;;;;;24.03;40.82;99982.59;5070704;28;20199;-62
2022/05/12 08:34:00;;;;;;;5.97;5.37;;;;;;;24.05;40.75;99983.41;5070703;28;20191;-62
2022/05/12 08:36:28;;;;;;;5.80;5.07;;;;;;;24.00;40.25;99983.56;5070811;28;20218;-63
2022/05/12 08:38:55;;;;;;;5.67;5.27;;;;;;;23.94;40.73;99975.88;5070482;28;20231;-62
2022/05/12 08:41:29;;;;;;;5.97;5.37;;;;;;;23.99;40.96;99980.97;5070969;28;20547;-62
2022/05/12 08:44:01;;;;;;;5.60;5.00;;;;;;;24.10;40.35;99980.66;5070480;28;20242;-63
2022/05/12 08:46:44;;;;;;;6.18;5.22;;;;;;;24.04;40.92;99961.53;5069934;28;20445;-63
2022/05/12 08:49:30;;;;;;;17.00;14.07;;;;;;;24.09;41.49;99971.91;5070225;28;20298;-63
2022/05/12 08:52:06;;;;;;;6.40;5.80;;;;;;;24.27;39.99;99984.50;5069874;28;20203;-62
2022/05/12 08:54:35;;;;;;;6.40;5.80;;;;;;;24.30;40.36;99975.66;5069910;28;20264;-62
2022/05/12 08:57:05;;;;;;;5.85;5.30;;;;;;;24.32;40.26;99979.94;5067810;28;20818;-62
2022/05/12 08:59:33;;;;;;;9.13;5.13;;;;;;;24.27;39.36;99971.38;5061834;28;20597;-62
2022/05/12 09:02:14;;;;;;;6.87;5.50;;;;;;;24.33;39.99;99967.69;5069620;28;20184;-62
2022/05/12 09:05:02;;;;;;;7.80;5.30;;;;;;;24.51;40.20;99972.31;5065585;28;20197;-62
2022/05/12 09:07:33;;;;;;;6.70;6.00;;;;;;;24.69;40.37;99969.09;5068483;28;20187;-62
2022/05/12 09:10:10;;;;;;;6.83;5.50;;;;;;;24.75;38.86;99960.16;5068491;28;20187;-62
2022/05/12 09:12:45;;;;;;;7.97;5.07;;;;;;;24.77;38.81;99967.09;5067580;28;20214;-62
2022/05/12 09:15:14;;;;;;;8.37;4.93;;;;;;;24.73;37.79;99962.81;5063995;28;20693;-62
2022/05/12 09:17:48;;;;;;;6.63;5.67;;;;;;;24.84;39.13;99960.72;5064212;28;20199;-62
2022/05/12 09:20:18;;;;;;;7.47;5.60;;;;;;;25.00;38.85;99961.91;5068976;28;20237;-62
2022/05/12 09:22:45;;;;;;;5.13;4.60;;;;;;;25.07;36.48;99968.69;5069596;28;20219;-63
2022/05/12 09:25:27;;;;;;;6.87;5.00;;;;;;;25.09;36.63;99969.47;5069189;28;20214;-63
2022/05/12 09:27:58;;;;;;;5.57;4.70;;;;;;;24.86;37.25;99958.88;5069301;28;20207;-63
2022/05/12 09:30:32;;;;;;;10.23;5.28;;;;;;;25.05;37.48;99970.47;5069660;28;20198;-62
2022/05/12 09:33:01;;;;;;;5.20;4.70;;;;;;;25.18;36.51;99958.66;5069564;28;20191;-63
2022/05/12 09:35:30;;;;;;;6.50;5.60;;;;;;;25.24;36.35;99958.41;5069516;28;20192;-63
2022/05/12 09:37:57;;;;;;;9.90;5.27;;;;;;;25.39;36.30;99956.13;5069154;28;20227;-63
2022/05/12 09:40:35;;;;;;;5.97;4.73;;;;;;;25.39;36.23;99956.13;5069153;28;20257;-63
2022/05/12 09:43:17;;;;;;;6.03;4.57;;;;;;;25.55;35.62;99957.31;5069443;28;20195;-63
2022/05/12 09:45:48;;;;;;;4.60;4.17;;;;;;;25.65;34.34;99956.94;5068942;28;20204;-63
2022/05/12 09:48:26;;;;;;;6.30;4.20;;;;;;;25.64;33.34;99949.06;5069184;28;20233;-63
2022/05/12 09:50:53;;;;;;;4.93;4.40;;;;;;;25.76;32.37;99944.22;5069234;28;20195;-62
2022/05/12 09:53:29;;;;;;;5.38;4.63;;;;;;;25.85;33.23;99945.59;5069212;28;20571;-63
2022/05/12 09:56:04;;;;;;;6.28;4.95;;;;;;;25.88;32.24;99949.91;5068981;28;20206;-63
2022/05/12 09:58:36;;;;;;;5.25;4.75;;;;;;;25.88;31.47;99942.00;5068957;28;20553;-62
2022/05/12 10:01:16;;;;;;;5.88;3.70;;;;;;;25.87;30.67;99932.41;5068676;28;20206;-62
2022/05/12 10:09:18;;;;;;;6.43;4.15;;;;;;;25.87;31.02;99933.25;5067521;28;20172;-62
2022/05/12 10:11:51;;;;;;;7.57;3.70;;;;;;;25.89;30.68;99923.53;5067986;28;20195;-63
2022/05/12 10:14:36;;;;;;;5.68;4.00;;;;;;;25.77;31.44;99924.84;5068146;28;20218;-62
2022/05/12 10:17:10;;;;;;;7.50;4.53;;;;;;;25.97;30.55;99917.94;5065742;28;20191;-59
2022/05/12 10:19:41;;;;;;;5.28;4.10;;;;;;;26.02;31.55;99927.38;5067940;28;20211;-58
2022/05/12 10:22:14;;;;;;;6.80;3.83;;;;;;;26.11;31.35;99920.88;5068307;28;20241;-58
2022/05/12 10:24:51;;;;;;;5.88;3.50;;;;;;;25.95;31.33;99919.78;5065743;28;20184;-58
2022/05/12 10:27:27;;;;;;;4.50;4.10;;;;;;;25.84;30.98;99919.34;5068264;28;20676;-63
2022/05/12 10:30:02;;;;;;;6.30;3.50;;;;;;;25.96;29.56;99917.06;5070039;28;20234;-64
2022/05/12 10:32:46;;;;;;;4.17;3.53;;;;;;;26.05;29.34;99908.81;5072345;28;20195;-62
2022/05/12 10:35:22;;;;;;;4.90;3.50;;;;;;;26.13;31.32;99908.50;5072718;28;20297;-62
2022/05/12 10:37:58;;;;;;;7.10;4.00;;;;;;;26.20;31.30;99908.25;5072124;28;20195;-63
2022/05/12 10:40:33;;;;;;;3.83;3.53;;;;;;;26.31;30.32;99898.13;5066358;28;20284;-63
2022/05/12 10:43:11;;;;;;;6.55;3.90;;;;;;;26.40;31.60;99899.50;5071020;28;20191;-62
2022/05/12 10:45:50;;;;;;;4.97;4.13;;;;;;;26.50;29.44;99889.44;5072299;28;21038;-62
2022/05/12 10:48:34;;;;;;;4.90;3.93;;;;;;;26.61;30.37;99890.69;5068623;28;20882;-62
2022/05/12 10:51:04;;;;;;;4.72;4.32;;;;;;;26.68;30.44;99896.56;5072185;28;20229;-62
2022/05/12 10:53:41;;;;;;;4.35;3.92;;;;;;;26.66;30.56;99894.00;5065706;28;20188;-62
2022/05/12 10:56:30;;;;;;;11.85;4.70;;;;;;;26.52;29.82;99885.81;5067893;28;20204;-57
2022/05/12 10:59:18;;;;;;;8.18;3.90;;;;;;;26.39;29.77;99884.63;5067673;28;20211;-57
2022/05/12 11:01:50;;;;;;;6.67;4.20;;;;;;;26.48;30.43;99891.28;5067935;28;20808;-58
2022/05/12 11:04:23;;;;;;;9.55;3.97;;;;;;;26.47;30.09;99879.88;5071393;28;20206;-58
2022/05/12 11:06:57;;;;;;;3.95;3.53;;;;;;;26.40;29.87;99885.50;5072163;28;20195;-63
2022/05/12 11:09:27;;;;;;;4.93;4.10;;;;;;;26.61;29.75;99874.88;5068390;28;20537;-64
2022/05/12 11:11:59;;;;;;;8.05;4.72;;;;;;;26.76;30.17;99881.25;5057741;28;20200;-63
2022/05/12 11:14:33;;;;;;;4.32;3.92;;;;;;;26.93;29.31;99868.22;5071920;28;20604;-63
2022/05/12 11:17:06;;;;;;;12.27;4.50;;;;;;;26.77;28.98;99844.28;5071566;28;20192;-62
2022/05/12 11:19:33;;;;;;;4.40;4.00;;;;;;;26.86;28.21;99872.06;5071364;28;20693;-62
2022/05/12 11:22:16;;;;;;;5.57;3.75;;;;;;;26.64;28.44;99865.97;5071043;28;20196;-62
2022/05/12 11:24:52;;;;;;;6.03;4.20;;;;;;;26.54;28.23;99857.59;5071406;28;20652;-63
2022/05/12 11:27:45;;;;;;;5.47;3.55;;;;;;;26.44;28.00;99868.59;5071282;28;20203;-57
2022/05/12 11:30:30;;;;;;;4.20;3.28;;;;;;;26.50;27.89;99860.44;5071482;28;20286;-57
2022/05/12 11:33:08;;;;;;;4.50;3.50;;;;;;;26.54;26.91;99857.59;5071472;28;20585;-57
2022/05/12 11:35:43;;;;;;;4.88;3.50;;;;;;;26.59;27.05;99860.06;5071517;28;20187;-58
2022/05/12 11:38:45;;;;;;;4.88;3.28;;;;;;;26.77;27.27;99846.91;5070988;28;20222;-58
2022/05/12 11:41:43;;;;;;;5.22;3.30;;;;;;;26.78;26.94;99845.19;5068837;28;20202;-58
2022/05/12 11:44:32;;;;;;;3.75;3.15;;;;;;;26.91;26.30;99849.84;5071689;28;20245;-58
2022/05/12 11:47:18;;;;;;;5.55;3.38;;;;;;;27.04;26.49;99833.44;5071484;28;20192;-59
2022/05/12 11:50:00;;;;;;;5.35;3.70;;;;;;;27.25;24.57;99829.84;5070968;28;20270;-58
2022/05/12 11:52:39;;;;;;;4.93;3.15;;;;;;;27.46;24.92;99824.44;5071111;28;20200;-56
2022/05/12 11:55:21;;;;;;;4.22;3.00;;;;;;;27.42;24.93;99822.84;5070994;28;20630;-58